createdAt,value
2019-01-03T00:01:31.044Z,82097.45
2019-01-03T00:06:37.029Z,82108.58
2019-01-03T00:11:52.110Z,82110.13
2019-01-03T00:17:13.556Z,82117.84
2019-01-03T00:22:35.729Z,82128.03
2019-01-03T00:27:58.375Z,82139.97
2019-01-03T00:33:04.069Z,82158.94
2019-01-03T00:38:26.224Z,82171.26
2019-01-03T00:43:34.615Z,82188.13
2019-01-03T00:48:43.619Z,82203.00
2019-01-03T00:53:55.638Z,82217.74
2019-01-03T00:59:03.826Z,82235.66
2019-01-03T01:04:10.202Z,82249.47
2019-01-03T01:09:32.026Z,82262.05
2019-01-03T01:14:54.335Z,82269.53
2019-01-03T01:20:03.736Z,82281.27
2019-01-03T01:25:09.840Z,82289.58
2019-01-03T01:30:16.273Z,82298.91
2019-01-03T01:35:22.664Z,82302.92
2019-01-03T01:40:44.544Z,82312.27
2019-01-03T01:45:50.284Z,82320.94
2019-01-03T01:50:58.820Z,82326.41
2019-01-03T01:56:21.267Z,82331.22
2019-01-03T02:01:27.737Z,82337.62
2019-01-03T02:06:33.753Z,82342.99
2019-01-03T02:11:55.018Z,82346.59
2019-01-03T02:17:09.982Z,82353.77
2019-01-03T02:22:34.810Z,82357.73
2019-01-03T02:27:41.153Z,82359.82
2019-01-03T02:32:55.964Z,82366.05
2019-01-03T02:38:19.749Z,82371.13
2019-01-03T02:43:28.777Z,82373.88
2019-01-03T02:48:37.253Z,82377.74
2019-01-03T02:53:55.433Z,82375.66
2019-01-03T02:59:01.759Z,82376.88
2019-01-03T03:04:23.590Z,82381.73
2019-01-03T03:09:35.108Z,82383.52
2019-01-03T03:14:52.924Z,82381.17
2019-01-03T03:20:07.434Z,82385.41
2019-01-03T03:25:29.888Z,82387.06
2019-01-03T03:30:52.332Z,82387.49
2019-01-03T03:36:03.960Z,82393.23
2019-01-03T03:41:16.692Z,82391.40
2019-01-03T03:46:22.975Z,82391.08
2019-01-03T03:51:31.786Z,82399.69
2019-01-03T03:56:46.586Z,82407.03
2019-01-03T04:02:07.636Z,82407.20
2019-01-03T04:07:29.911Z,82411.90
2019-01-03T04:12:47.867Z,82413.89
2019-01-03T04:18:03.442Z,82414.69
2019-01-03T04:23:18.562Z,82417.77
2019-01-03T04:28:40.955Z,82417.84
2019-01-03T04:33:55.709Z,82419.06
2019-01-03T04:39:07.618Z,82419.83
2019-01-03T04:44:16.834Z,82425.86
2019-01-03T04:49:22.860Z,82428.15
2019-01-03T04:54:44.878Z,82435.87
2019-01-03T05:00:02.647Z,82437.49
2019-01-03T05:05:11.534Z,82444.49
2019-01-03T05:10:20.859Z,82453.17
2019-01-03T05:15:42.947Z,82456.61
2019-01-03T05:20:51.743Z,82459.91
2019-01-03T05:25:57.715Z,82459.62
2019-01-03T05:31:12.976Z,82460.12
2019-01-03T05:36:18.703Z,82467.08
2019-01-03T05:41:24.918Z,82467.30
2019-01-03T05:46:47.129Z,82464.59
2019-01-03T05:51:53.135Z,82461.14
2019-01-03T05:56:59.138Z,82471.06
2019-01-03T06:02:14.413Z,82474.54
2019-01-03T06:07:20.428Z,82481.57
2019-01-03T06:12:35.670Z,82486.41
2019-01-03T06:17:50.592Z,82491.78
2019-01-03T06:23:05.212Z,82497.06
2019-01-03T06:28:13.556Z,82505.12
2019-01-03T06:33:25.368Z,82510.83
2019-01-03T06:38:31.419Z,82518.35
2019-01-03T06:43:43.089Z,82512.22
2019-01-03T06:49:00.595Z,82508.87
2019-01-03T06:54:12.174Z,82511.49
2019-01-03T06:59:21.118Z,82514.73
2019-01-03T07:04:41.995Z,82518.76
2019-01-03T07:09:56.827Z,82521.58
2019-01-03T07:15:02.783Z,82522.91
2019-01-03T07:20:17.888Z,82526.09
2019-01-03T07:25:23.565Z,82523.00
2019-01-03T07:30:32.220Z,82527.68
2019-01-03T07:35:37.927Z,82526.15
2019-01-03T07:40:52.796Z,82529.77
2019-01-03T07:46:08.069Z,82534.42
2019-01-03T07:51:30.456Z,82537.01
2019-01-03T07:56:52.317Z,82539.20
2019-01-03T08:01:58.582Z,82540.42
2019-01-03T08:07:20.906Z,82550.58
2019-01-03T08:12:29.317Z,82554.55
2019-01-03T08:17:35.271Z,82564.38
2019-01-03T08:22:47.222Z,82567.13
2019-01-03T08:27:56.264Z,82575.94
2019-01-03T08:33:14.591Z,82579.52
2019-01-03T08:38:37.163Z,82581.44
2019-01-03T08:43:52.144Z,82590.27
2019-01-03T08:49:00.594Z,82591.16
2019-01-03T08:54:22.297Z,82599.80
2019-01-03T08:59:31.086Z,82609.83
2019-01-03T09:04:42.945Z,82613.60
2019-01-03T09:09:48.905Z,82625.59
2019-01-03T09:15:06.328Z,82634.49
2019-01-03T09:20:12.290Z,82641.49
2019-01-03T09:25:18.280Z,82652.41
2019-01-03T09:30:42.504Z,82661.69
2019-01-03T09:35:48.477Z,82676.16
2019-01-03T09:41:10.654Z,82694.42
2019-01-03T09:46:14.681Z,82707.01
2019-01-03T09:51:18.998Z,82719.41
2019-01-03T09:56:23.367Z,82730.48
2019-01-03T10:01:27.730Z,82738.11
2019-01-03T10:06:32.436Z,82727.23
2019-01-03T10:11:36.831Z,82723.05
2019-01-03T10:16:40.856Z,82730.86
2019-01-03T10:21:45.115Z,82723.02
2019-01-03T10:26:49.429Z,82734.97
2019-01-03T10:31:53.763Z,82741.62
2019-01-03T10:36:57.803Z,82736.34
2019-01-03T10:42:01.851Z,82726.84
2019-01-03T10:47:06.186Z,82740.41
2019-01-03T10:52:10.263Z,82740.23
2019-01-03T10:57:14.284Z,82751.53
2019-01-03T11:02:18.906Z,82748.38
2019-01-03T11:07:23.549Z,82744.31
2019-01-03T11:12:27.857Z,82747.00
2019-01-03T11:17:32.175Z,82754.84
2019-01-03T11:22:36.471Z,82756.30
2019-01-03T11:27:40.566Z,82746.80
2019-01-03T11:32:44.899Z,82761.39
2019-01-03T11:37:49.248Z,82769.83
2019-01-03T11:42:53.905Z,82770.30
2019-01-03T11:47:58.262Z,82786.32
2019-01-03T11:53:02.350Z,82792.13
2019-01-03T11:58:06.801Z,82797.57
2019-01-03T12:03:11.192Z,82796.62
2019-01-03T12:08:15.546Z,82792.83
2019-01-03T12:13:19.908Z,82786.28
2019-01-03T12:18:24.284Z,82791.14
2019-01-03T12:23:28.657Z,82781.56
2019-01-03T12:28:33.902Z,82799.30
2019-01-03T12:33:38.494Z,82817.89
2019-01-03T12:38:42.856Z,82827.77
2019-01-03T12:43:47.236Z,82847.55
2019-01-03T12:48:51.372Z,82858.17
2019-01-03T12:53:55.428Z,82843.69
2019-01-03T12:58:59.479Z,82839.98
2019-01-03T13:04:04.052Z,82834.57
2019-01-03T13:09:10.315Z,82828.13
2019-01-03T13:14:15.024Z,82840.19
2019-01-03T13:19:19.676Z,82832.52
2019-01-03T13:24:23.782Z,82831.63
2019-01-03T13:29:27.824Z,82836.56
2019-01-03T13:34:31.878Z,82834.73
2019-01-03T13:39:36.153Z,82834.11
2019-01-03T13:44:40.195Z,82822.11
2019-01-03T13:49:44.514Z,82827.59
2019-01-03T13:54:48.557Z,82829.42
2019-01-03T13:59:52.905Z,82830.09
2019-01-03T14:04:57.002Z,82823.74
2019-01-03T14:10:01.049Z,82830.19
2019-01-03T14:15:07.845Z,82822.94
2019-01-03T14:20:13.174Z,82825.41
2019-01-03T14:25:17.513Z,82816.96
2019-01-03T14:30:21.962Z,82804.67
2019-01-03T14:35:26.669Z,82802.16
2019-01-03T14:40:31.047Z,82799.54
2019-01-03T14:45:35.424Z,82800.14
2019-01-03T14:50:39.504Z,82798.55
2019-01-03T14:55:43.835Z,82793.16
2019-01-03T15:00:48.230Z,82797.75
2019-01-03T15:05:52.317Z,82793.20
2019-01-03T15:10:56.359Z,82794.80
2019-01-03T15:16:00.764Z,82791.14
2019-01-03T15:21:05.166Z,82784.23
2019-01-03T15:26:09.552Z,82781.63
2019-01-03T15:31:14.265Z,82771.50
2019-01-03T15:36:18.788Z,82772.86
2019-01-03T15:41:23.128Z,82772.23
2019-01-03T15:46:27.886Z,82761.27
2019-01-03T15:51:32.255Z,82762.06
2019-01-03T15:56:36.795Z,82756.48
2019-01-03T16:01:41.512Z,82749.20
2019-01-03T16:06:45.898Z,82750.49
2019-01-03T16:11:50.279Z,82752.20
2019-01-03T16:16:54.382Z,82748.20
2019-01-03T16:21:58.424Z,82743.95
2019-01-03T16:27:02.782Z,82748.00
2019-01-03T16:32:06.907Z,82744.39
2019-01-03T16:37:11.030Z,82747.34
2019-01-03T16:42:15.537Z,82742.63
2019-01-03T16:47:20.137Z,82739.44
2019-01-03T16:52:24.523Z,82741.86
2019-01-03T16:57:28.895Z,82742.33
2019-01-03T17:02:33.549Z,82744.98
2019-01-03T17:07:37.930Z,82745.52
2019-01-03T17:12:42.086Z,82744.19
2019-01-03T17:17:46.124Z,82748.70
2019-01-03T17:22:50.434Z,82748.88
2019-01-03T17:27:54.770Z,82751.70
2019-01-03T17:32:59.472Z,82753.75
2019-01-03T17:38:03.845Z,82751.92
2019-01-03T17:43:08.230Z,82749.13
2019-01-03T17:48:12.322Z,82752.45
2019-01-03T17:53:16.667Z,82754.78
2019-01-03T17:58:20.753Z,82757.77
2019-01-03T18:03:25.124Z,82755.41
2019-01-03T18:08:29.535Z,82757.14
2019-01-03T18:13:33.924Z,82754.65
2019-01-03T18:18:38.596Z,82755.94
2019-01-03T18:23:42.993Z,82760.59
2019-01-03T18:28:47.091Z,82764.69
2019-01-03T18:33:51.449Z,82763.48
2019-01-03T18:38:55.585Z,82765.48
2019-01-03T18:44:00.414Z,82769.64
2019-01-03T18:49:04.637Z,82768.67
2019-01-03T18:54:08.939Z,82769.83
2019-01-03T18:59:13.105Z,82765.48
2019-01-03T19:04:17.573Z,82767.84
2019-01-03T19:09:21.953Z,82764.55
2019-01-03T19:14:26.371Z,82763.98
2019-01-03T19:19:30.505Z,82762.48
2019-01-03T19:24:35.379Z,82763.52
2019-01-03T19:29:39.776Z,82762.49
2019-01-03T19:34:44.585Z,82770.00
2019-01-03T19:39:48.686Z,82771.83
2019-01-03T19:44:52.738Z,82770.43
2019-01-03T19:49:57.115Z,82772.09
2019-01-03T19:55:01.512Z,82767.08
2019-01-03T20:00:11.024Z,82767.31
2019-01-03T20:05:15.161Z,82770.03
2019-01-03T20:10:20.622Z,82770.20
2019-01-03T20:15:24.751Z,82768.05
2019-01-03T20:20:29.426Z,82765.98
2019-01-03T20:25:34.625Z,82758.84
2019-01-03T20:30:44.811Z,82761.13
2019-01-03T20:35:46.197Z,82758.50
2019-01-03T20:40:50.877Z,82761.33
2019-01-03T20:45:55.269Z,82756.55
2019-01-03T20:51:00.935Z,82758.04
2019-01-03T20:56:05.560Z,82752.95
2019-01-03T21:01:09.636Z,82750.92
2019-01-03T21:06:13.666Z,82746.08
2019-01-03T21:11:17.690Z,82744.35
2019-01-03T21:16:22.471Z,82731.92
2019-01-03T21:21:27.143Z,82731.66
2019-01-03T21:26:31.506Z,82724.18
2019-01-03T21:31:35.836Z,82722.63
2019-01-03T21:36:39.873Z,82716.16
2019-01-03T21:41:43.889Z,82710.19
2019-01-03T21:46:48.477Z,82697.58
2019-01-03T21:51:52.861Z,82681.93
2019-01-03T21:56:57.251Z,82676.42
2019-01-03T22:02:01.904Z,82663.05
2019-01-03T22:07:06.282Z,82660.74
2019-01-03T22:12:10.350Z,82655.10
2019-01-03T22:17:14.370Z,82635.45
2019-01-03T22:22:18.936Z,82628.94
2019-01-03T22:27:23.580Z,82633.53
2019-01-03T22:32:27.654Z,82639.53
2019-01-03T22:37:31.973Z,82641.06
2019-01-03T22:42:36.354Z,82639.70
2019-01-03T22:47:40.737Z,82637.31
2019-01-03T22:52:45.102Z,82628.11
2019-01-03T22:57:49.805Z,82627.28
2019-01-03T23:02:54.173Z,82618.34
2019-01-03T23:07:58.536Z,82607.20
2019-01-03T23:13:02.931Z,82592.95
2019-01-03T23:18:06.999Z,82591.27
2019-01-03T23:23:11.322Z,82598.66
2019-01-03T23:28:15.681Z,82585.66
2019-01-03T23:33:20.048Z,82570.39
2019-01-03T23:38:24.695Z,82556.98
2019-01-03T23:43:29.070Z,82552.07
2019-01-03T23:48:34.851Z,82552.43
2019-01-03T23:53:39.555Z,82551.67
2019-01-03T23:58:44.015Z,82547.86
